Time;durP1;ratioP1;P1;durP2;ratioP2;P2;SDS_P1;SDS_P2;PMS_P1;PMS_P2;Temp;Humidity;BMP_temperature;BMP_pressure;BME280_temperature;BME280_humidity;BME280_pressure;Samples;Min_cycle;Max_cycle;Signal;HPM_P1;HPM_P2
2023/12/02 00:01:09;;;;;;;6.55;4.63;;;;;;;;;;10417648;27;20082;-62
2023/12/02 00:06:10;;;;;;;7.68;5.25;;;;;;;;;;10419579;27;20074;-62
2023/12/02 00:11:08;;;;;;;6.85;6.18;;;;;;;;;;10418683;27;20074;-61
2023/12/02 00:16:07;;;;;;;6.63;5.30;;;;;;;;;;10418604;27;20067;-61
2023/12/02 00:21:05;;;;;;;8.50;6.95;;;;;;;;;;10415624;27;20097;-60
2023/12/02 00:26:05;;;;;;;7.25;5.32;;;;;;;;;;10415234;27;20528;-61
2023/12/02 00:31:04;;;;;;;11.77;7.93;;;;;;;;;;10414858;27;20472;-61
2023/12/02 00:36:02;;;;;;;17.10;9.82;;;;;;;;;;10415451;27;20468;-61
2023/12/02 00:41:00;;;;;;;13.05;10.68;;;;;;;;;;10412880;27;20530;-62
2023/12/02 00:46:02;;;;;;;12.70;9.98;;;;;;;;;;10414755;27;20074;-61
2023/12/02 00:51:00;;;;;;;12.35;10.63;;;;;;;;;;10407697;27;20532;-61
2023/12/02 00:55:58;;;;;;;12.13;9.98;;;;;;;;;;10419236;27;20071;-61
2023/12/02 01:00:57;;;;;;;11.25;10.10;;;;;;;;;;10416811;27;20503;-62
2023/12/02 01:05:56;;;;;;;12.68;10.60;;;;;;;;;;10416689;27;20081;-62
2023/12/02 01:10:55;;;;;;;9.30;8.40;;;;;;;;;;10415169;27;20492;-62
2023/12/02 01:15:53;;;;;;;11.50;8.50;;;;;;;;;;10415683;27;20075;-61
2023/12/02 01:20:51;;;;;;;9.30;7.70;;;;;;;;;;10394835;27;20075;-61
2023/12/02 01:25:51;;;;;;;9.63;8.38;;;;;;;;;;10414073;27;20475;-62
2023/12/02 01:30:49;;;;;;;12.80;8.57;;;;;;;;;;10414583;27;20067;-62
2023/12/02 01:35:47;;;;;;;13.65;8.98;;;;;;;;;;10416354;27;20063;-62
2023/12/02 01:40:45;;;;;;;8.60;6.90;;;;;;;;;;10414438;27;20063;-62
2023/12/02 01:45:45;;;;;;;19.92;13.57;;;;;;;;;;10414607;27;20074;-62
2023/12/02 01:50:44;;;;;;;16.25;10.98;;;;;;;;;;10412977;27;20078;-62
2023/12/02 01:55:42;;;;;;;8.38;7.35;;;;;;;;;;10413260;28;20176;-62
2023/12/02 02:00:40;;;;;;;10.82;7.90;;;;;;;;;;10416067;28;20475;-63
2023/12/02 02:05:40;;;;;;;6.60;6.00;;;;;;;;;;10417248;27;20071;-62
2023/12/02 02:10:38;;;;;;;6.15;5.65;;;;;;;;;;10423236;27;20485;-61
2023/12/02 02:15:37;;;;;;;5.80;5.20;;;;;;;;;;10422619;27;20063;-62
2023/12/02 02:20:35;;;;;;;5.63;5.05;;;;;;;;;;10425393;27;20074;-61
2023/12/02 02:25:34;;;;;;;8.57;7.68;;;;;;;;;;10422461;27;20067;-62
2023/12/02 02:30:33;;;;;;;14.15;10.98;;;;;;;;;;10424228;27;20073;-62
2023/12/02 02:35:31;;;;;;;10.23;7.90;;;;;;;;;;10423108;27;20074;-61
2023/12/02 02:40:30;;;;;;;7.65;5.53;;;;;;;;;;10419064;27;20066;-61
2023/12/02 02:45:29;;;;;;;4.50;4.10;;;;;;;;;;10423201;27;20594;-61
2023/12/02 02:50:27;;;;;;;4.53;3.47;;;;;;;;;;10422839;27;20071;-61
2023/12/02 02:55:26;;;;;;;5.40;3.20;;;;;;;;;;10422589;27;20067;-61
2023/12/02 03:00:24;;;;;;;4.28;3.88;;;;;;;;;;10419401;27;20369;-61
2023/12/02 03:05:23;;;;;;;4.78;3.67;;;;;;;;;;10417994;28;20532;-61
2023/12/02 03:10:25;;;;;;;5.32;4.80;;;;;;;;;;10418286;28;20465;-62
2023/12/02 03:15:23;;;;;;;4.18;3.78;;;;;;;;;;10420158;27;20363;-62
2023/12/02 03:20:21;;;;;;;4.93;4.00;;;;;;;;;;10417347;28;20063;-61
2023/12/02 03:25:21;;;;;;;4.28;3.92;;;;;;;;;;10418364;28;20478;-62
2023/12/02 03:30:19;;;;;;;6.82;3.97;;;;;;;;;;10416366;28;20079;-61
2023/12/02 03:35:17;;;;;;;5.93;3.55;;;;;;;;;;10414291;28;20071;-62
2023/12/02 03:40:15;;;;;;;4.47;3.50;;;;;;;;;;10414950;28;20071;-62
2023/12/02 03:45:15;;;;;;;6.00;5.38;;;;;;;;;;10414962;28;21000;-62
2023/12/02 03:50:14;;;;;;;7.90;5.32;;;;;;;;;;10425865;28;20059;-61
2023/12/02 03:55:15;;;;;;;6.32;5.13;;;;;;;;;;10414381;28;20059;-62
2023/12/02 04:01:52;;;;;;;8.38;7.40;;;;;;;;;;10431468;27;20741;-62
2023/12/02 04:06:51;;;;;;;6.97;6.28;;;;;;;;;;10370127;28;20068;-62
2023/12/02 04:11:49;;;;;;;7.50;6.15;;;;;;;;;;10367579;28;20072;-62
2023/12/02 04:16:47;;;;;;;7.78;6.05;;;;;;;;;;10366710;28;20485;-61
2023/12/02 04:21:47;;;;;;;6.20;4.22;;;;;;;;;;10366902;28;20523;-62
2023/12/02 04:26:46;;;;;;;4.95;3.00;;;;;;;;;;10365679;28;20075;-61
2023/12/02 04:31:45;;;;;;;2.80;2.60;;;;;;;;;;10368723;28;20071;-62
2023/12/02 04:36:44;;;;;;;3.05;2.75;;;;;;;;;;10371100;28;20100;-62
2023/12/02 04:41:44;;;;;;;4.07;3.10;;;;;;;;;;10366591;28;20075;-61
2023/12/02 04:46:42;;;;;;;7.25;5.00;;;;;;;;;;10369274;28;20509;-62
2023/12/02 04:51:41;;;;;;;6.15;5.13;;;;;;;;;;10371265;28;20066;-62
2023/12/02 04:56:39;;;;;;;21.13;17.63;;;;;;;;;;10371367;28;20153;-63
2023/12/02 05:01:39;;;;;;;14.05;12.50;;;;;;;;;;10370454;28;20080;-62
2023/12/02 05:06:38;;;;;;;13.70;9.93;;;;;;;;;;10371907;28;20063;-62
2023/12/02 05:11:36;;;;;;;7.15;6.45;;;;;;;;;;10352927;28;20078;-62
2023/12/02 05:16:34;;;;;;;7.05;4.65;;;;;;;;;;10337859;28;20071;-62
2023/12/02 05:21:34;;;;;;;26.38;19.92;;;;;;;;;;10346397;28;20075;-62
2023/12/02 05:26:33;;;;;;;12.00;8.07;;;;;;;;;;10335632;28;20091;-62
2023/12/02 05:31:31;;;;;;;12.65;9.85;;;;;;;;;;10340580;28;20060;-62
2023/12/02 05:36:29;;;;;;;8.77;8.02;;;;;;;;;;10341307;28;20063;-62
2023/12/02 05:41:29;;;;;;;4.72;4.32;;;;;;;;;;10343984;28;20071;-62
2023/12/02 05:46:27;;;;;;;6.72;3.58;;;;;;;;;;10340993;28;20068;-62
2023/12/02 05:51:25;;;;;;;3.85;3.55;;;;;;;;;;10342310;28;20524;-62
2023/12/02 05:56:24;;;;;;;3.55;3.25;;;;;;;;;;10341060;28;20705;-62
2023/12/02 06:01:23;;;;;;;3.88;3.58;;;;;;;;;;10338961;28;20165;-62
2023/12/02 06:06:24;;;;;;;8.32;4.07;;;;;;;;;;10342626;28;20121;-61
2023/12/02 06:11:23;;;;;;;7.57;5.88;;;;;;;;;;10348852;28;20075;-62
2023/12/02 06:16:21;;;;;;;22.88;20.48;;;;;;;;;;10341034;28;20079;-61
2023/12/02 06:21:21;;;;;;;8.27;6.65;;;;;;;;;;10341481;28;20075;-61
2023/12/02 06:26:19;;;;;;;6.07;5.00;;;;;;;;;;10327442;28;20068;-62
2023/12/02 06:31:18;;;;;;;5.75;5.10;;;;;;;;;;10325843;28;20100;-63
2023/12/02 06:36:16;;;;;;;4.13;3.70;;;;;;;;;;10317041;28;20080;-63
2023/12/02 06:41:16;;;;;;;5.65;4.00;;;;;;;;;;10333443;28;20072;-63
2023/12/02 06:46:20;;;;;;;8.50;4.70;;;;;;;;;;10324342;28;20071;-63
2023/12/02 06:51:19;;;;;;;10.98;9.55;;;;;;;;;;10313805;28;20138;-62
2023/12/02 06:56:19;;;;;;;11.73;10.50;;;;;;;;;;10308849;28;20593;-62
2023/12/02 07:01:24;;;;;;;7.57;5.82;;;;;;;;;;10314714;28;20143;-63
2023/12/02 07:06:22;;;;;;;9.55;5.75;;;;;;;;;;10324675;28;20489;-61
2023/12/02 07:11:22;;;;;;;5.07;3.60;;;;;;;;;;10320830;28;20076;-61
2023/12/02 07:16:21;;;;;;;5.70;4.18;;;;;;;;;;10306107;28;20163;-61
2023/12/02 07:21:19;;;;;;;3.65;3.28;;;;;;;;;;10305842;28;20490;-61
2023/12/02 07:26:17;;;;;;;8.57;7.78;;;;;;;;;;10323841;28;20525;-62
2023/12/02 07:31:17;;;;;;;6.28;5.43;;;;;;;;;;10307924;28;20453;-60
2023/12/02 07:36:16;;;;;;;6.50;5.47;;;;;;;;;;10306297;28;21892;-62
2023/12/02 07:41:14;;;;;;;43.15;35.90;;;;;;;;;;10307855;28;20135;-62
2023/12/02 07:46:12;;;;;;;11.60;10.38;;;;;;;;;;10308096;28;20501;-62
2023/12/02 07:51:12;;;;;;;17.45;15.55;;;;;;;;;;10305966;28;21017;-62
2023/12/02 07:56:10;;;;;;;15.35;10.65;;;;;;;;;;10307845;28;20163;-61
2023/12/02 08:01:09;;;;;;;8.20;6.22;;;;;;;;;;10306330;28;20608;-61
2023/12/02 08:06:08;;;;;;;8.57;6.40;;;;;;;;;;10314937;28;20147;-61
2023/12/02 08:11:08;;;;;;;10.00;6.97;;;;;;;;;;10320330;28;20166;-61
2023/12/02 08:16:06;;;;;;;6.95;4.63;;;;;;;;;;10307200;28;20513;-61
2023/12/02 08:21:05;;;;;;;4.07;3.50;;;;;;;;;;10303458;28;20159;-61
2023/12/02 08:26:03;;;;;;;4.75;4.25;;;;;;;;;;10315172;28;20144;-61
2023/12/02 08:31:03;;;;;;;5.30;4.28;;;;;;;;;;10328253;28;20067;-61
2023/12/02 08:36:01;;;;;;;5.32;3.58;;;;;;;;;;10329514;28;20119;-61
2023/12/02 08:40:59;;;;;;;4.93;3.47;;;;;;;;;;10319410;28;20499;-61
2023/12/02 08:45:58;;;;;;;4.07;3.17;;;;;;;;;;10326786;28;20063;-61
2023/12/02 08:50:59;;;;;;;5.65;4.68;;;;;;;;;;10325851;28;20110;-61
2023/12/02 08:55:58;;;;;;;5.88;3.90;;;;;;;;;;10335453;28;20072;-61
2023/12/02 09:00:56;;;;;;;6.03;3.20;;;;;;;;;;10333748;28;20088;-62
2023/12/02 09:05:55;;;;;;;20.65;13.68;;;;;;;;;;10336803;28;20071;-61
2023/12/02 09:10:55;;;;;;;8.02;6.68;;;;;;;;;;10337246;28;20525;-62
2023/12/02 09:15:53;;;;;;;6.05;4.13;;;;;;;;;;10338138;28;20114;-62
2023/12/02 09:20:53;;;;;;;5.43;4.13;;;;;;;;;;10337807;28;20080;-62
2023/12/02 09:25:53;;;;;;;6.07;3.63;;;;;;;;;;10335556;28;20478;-62
2023/12/02 09:30:55;;;;;;;6.28;3.25;;;;;;;;;;10336633;28;20070;-62
2023/12/02 09:36:07;;;;;;;7.73;3.93;;;;;;;;;;10337076;28;20068;-63
2023/12/02 09:41:22;;;;;;;4.65;3.90;;;;;;;;;;10336617;28;20079;-62
2023/12/02 09:46:26;;;;;;;5.00;3.72;;;;;;;;;;10336328;28;20083;-61
2023/12/02 09:51:32;;;;;;;6.65;4.93;;;;;;;;;;10332934;28;20072;-61
2023/12/02 09:56:31;;;;;;;5.57;4.15;;;;;;;;;;10336510;28;20074;-62
2023/12/02 10:01:34;;;;;;;4.40;4.00;;;;;;;;;;10335737;28;20092;-62
2023/12/02 10:06:42;;;;;;;8.65;6.30;;;;;;;;;;10335728;28;20072;-61
2023/12/02 10:11:44;;;;;;;8.75;7.32;;;;;;;;;;10316968;28;20070;-60
2023/12/02 10:16:44;;;;;;;3.40;3.10;;;;;;;;;;10311004;28;20171;-61
2023/12/02 10:21:43;;;;;;;4.93;4.10;;;;;;;;;;10305875;28;20147;-62
2023/12/02 10:26:42;;;;;;;5.85;3.35;;;;;;;;;;10299954;28;20141;-62
2023/12/02 10:31:45;;;;;;;6.05;4.43;;;;;;;;;;10297422;28;20143;-63
2023/12/02 10:36:48;;;;;;;13.33;4.23;;;;;;;;;;10314622;28;20065;-60
2023/12/02 10:41:48;;;;;;;4.18;3.00;;;;;;;;;;10317301;28;20119;-62
2023/12/02 10:46:47;;;;;;;12.48;9.35;;;;;;;;;;10335031;28;20064;-62
2023/12/02 10:51:45;;;;;;;8.65;7.85;;;;;;;;;;10331960;28;20067;-62
2023/12/02 10:56:46;;;;;;;15.55;12.95;;;;;;;;;;10332555;28;20071;-62
2023/12/02 11:01:45;;;;;;;74.05;51.05;;;;;;;;;;10332397;28;20082;-62
2023/12/02 11:06:49;;;;;;;44.63;36.95;;;;;;;;;;10318619;28;20067;-62
2023/12/02 11:11:57;;;;;;;29.15;21.23;;;;;;;;;;10317127;28;20131;-62
2023/12/02 11:17:01;;;;;;;30.50;23.33;;;;;;;;;;10322619;28;20082;-62
2023/12/02 11:22:12;;;;;;;23.97;18.23;;;;;;;;;;10313561;28;20147;-61
2023/12/02 11:27:18;;;;;;;14.65;11.27;;;;;;;;;;10311441;28;21066;-63
2023/12/02 11:32:18;;;;;;;9.20;7.65;;;;;;;;;;10307066;28;21347;-61
2023/12/02 11:37:22;;;;;;;7.45;4.30;;;;;;;;;;10312901;28;20159;-63
2023/12/02 11:42:25;;;;;;;14.48;7.82;;;;;;;;;;10305767;28;20127;-63
2023/12/02 11:47:28;;;;;;;16.30;11.13;;;;;;;;;;10304836;28;20122;-63
2023/12/02 11:52:34;;;;;;;69.03;56.47;;;;;;;;;;10318581;28;20475;-60
2023/12/02 11:57:40;;;;;;;61.90;51.45;;;;;;;;;;10303830;28;20147;-60
2023/12/02 12:03:09;;;;;;;45.75;40.63;;;;;;;;;;10306707;28;20176;-60
2023/12/02 12:08:12;;;;;;;38.40;32.38;;;;;;;;;;10222504;28;20135;-60
2023/12/02 12:13:12;;;;;;;33.72;27.42;;;;;;;;;;10301913;28;20139;-60
2023/12/02 12:18:11;;;;;;;26.23;23.38;;;;;;;;;;10300269;28;20143;-60
2023/12/02 12:23:09;;;;;;;21.98;19.67;;;;;;;;;;10304855;28;20130;-61
2023/12/02 12:28:08;;;;;;;30.40;21.17;;;;;;;;;;10308537;28;20120;-59
2023/12/02 12:33:12;;;;;;;35.13;27.02;;;;;;;;;;10309159;28;20175;-60
2023/12/02 12:38:11;;;;;;;63.92;42.70;;;;;;;;;;10309869;28;20155;-61
2023/12/02 12:43:11;;;;;;;44.00;35.65;;;;;;;;;;10308163;28;20506;-61
2023/12/02 12:48:11;;;;;;;53.72;39.63;;;;;;;;;;10324099;28;20132;-61
2023/12/02 12:53:11;;;;;;;33.83;28.75;;;;;;;;;;10310581;28;20120;-60
2023/12/02 12:58:13;;;;;;;47.47;39.30;;;;;;;;;;10311096;28;20569;-61
2023/12/02 13:03:21;;;;;;;119.60;73.13;;;;;;;;;;10308680;28;20127;-63
2023/12/02 13:08:25;;;;;;;47.38;29.15;;;;;;;;;;10311591;28;20148;-61
2023/12/02 13:13:24;;;;;;;54.70;43.35;;;;;;;;;;10320260;28;20119;-62
2023/12/02 13:18:24;;;;;;;17.75;12.45;;;;;;;;;;10327472;28;20090;-63
2023/12/02 13:23:24;;;;;;;10.60;8.35;;;;;;;;;;10318034;28;20127;-63
2023/12/02 13:28:25;;;;;;;25.88;20.27;;;;;;;;;;10332859;28;20095;-63
2023/12/02 13:33:31;;;;;;;12.18;7.38;;;;;;;;;;10333205;28;20501;-63
2023/12/02 13:38:33;;;;;;;82.55;60.63;;;;;;;;;;10333038;28;20508;-63
2023/12/02 13:43:33;;;;;;;72.80;60.22;;;;;;;;;;10336433;28;20071;-63
2023/12/02 13:48:38;;;;;;;59.40;48.25;;;;;;;;;;10335681;28;20080;-63
2023/12/02 13:53:40;;;;;;;41.22;34.55;;;;;;;;;;10336900;28;20064;-64
2023/12/02 13:58:40;;;;;;;37.67;30.45;;;;;;;;;;10335884;28;20076;-63
2023/12/02 14:03:48;;;;;;;47.70;35.80;;;;;;;;;;10334876;28;20067;-63
2023/12/02 14:08:51;;;;;;;35.72;26.52;;;;;;;;;;10336276;28;20068;-63
2023/12/02 14:13:54;;;;;;;22.02;17.58;;;;;;;;;;10336706;28;20064;-63
2023/12/02 14:19:08;;;;;;;15.20;10.77;;;;;;;;;;10350778;28;20072;-63
2023/12/02 14:24:33;;;;;;;53.55;36.65;;;;;;;;;;10333894;28;20075;-62
2023/12/02 14:29:41;;;;;;;34.57;28.00;;;;;;;;;;10299828;28;20150;-62
2023/12/02 14:34:53;;;;;;;43.95;33.95;;;;;;;;;;10335125;28;20079;-62
2023/12/02 14:40:08;;;;;;;17.67;15.55;;;;;;;;;;10333248;28;20071;-65
2023/12/02 14:45:08;;;;;;;54.83;39.15;;;;;;;;;;10334533;28;20082;-65
2023/12/02 14:50:09;;;;;;;25.45;19.55;;;;;;;;;;10331605;28;20095;-63
2023/12/02 14:55:08;;;;;;;43.30;37.33;;;;;;;;;;10331865;28;20064;-63
2023/12/02 15:00:08;;;;;;;30.60;22.48;;;;;;;;;;10332813;28;20079;-63
2023/12/02 15:05:09;;;;;;;64.47;52.83;;;;;;;;;;10334518;28;20107;-63
2023/12/02 15:10:10;;;;;;;16.75;11.18;;;;;;;;;;10332365;28;20088;-62
2023/12/02 15:15:08;;;;;;;9.35;6.55;;;;;;;;;;10333588;28;20492;-61
2023/12/02 15:20:13;;;;;;;5.18;4.28;;;;;;;;;;10332053;28;20501;-62
2023/12/02 15:25:11;;;;;;;7.80;4.25;;;;;;;;;;10328176;28;20079;-62
2023/12/02 15:30:12;;;;;;;9.15;3.67;;;;;;;;;;10332469;28;20678;-62
2023/12/02 15:35:12;;;;;;;6.13;4.00;;;;;;;;;;10345825;28;20516;-63
2023/12/02 15:40:11;;;;;;;8.77;4.88;;;;;;;;;;10333543;28;20064;-63
2023/12/02 15:45:09;;;;;;;7.53;4.75;;;;;;;;;;10332416;28;20072;-61
2023/12/02 15:50:08;;;;;;;11.70;7.25;;;;;;;;;;10331880;28;20474;-61
2023/12/02 15:55:08;;;;;;;11.27;5.43;;;;;;;;;;10329682;28;20074;-63
2023/12/02 16:00:08;;;;;;;28.40;15.93;;;;;;;;;;10332294;28;20190;-62
2023/12/02 16:05:08;;;;;;;37.45;22.25;;;;;;;;;;10339586;28;20076;-62
2023/12/02 16:10:12;;;;;;;19.52;14.35;;;;;;;;;;10331076;28;20064;-62
2023/12/02 16:15:10;;;;;;;9.50;6.30;;;;;;;;;;10325904;28;20068;-62
2023/12/02 16:20:12;;;;;;;22.23;17.45;;;;;;;;;;10332408;28;20072;-61
2023/12/02 16:25:11;;;;;;;14.20;9.88;;;;;;;;;;10331673;28;20068;-62
2023/12/02 16:30:13;;;;;;;6.90;6.20;;;;;;;;;;10330949;28;20063;-62
2023/12/02 16:35:12;;;;;;;9.15;8.20;;;;;;;;;;10330400;28;20084;-64
2023/12/02 16:40:12;;;;;;;9.88;8.05;;;;;;;;;;10346515;28;20078;-62
2023/12/02 16:45:15;;;;;;;11.25;8.38;;;;;;;;;;10330583;28;20068;-62
2023/12/02 16:50:15;;;;;;;7.60;4.45;;;;;;;;;;10330303;28;20068;-63
2023/12/02 16:55:15;;;;;;;31.73;16.92;;;;;;;;;;10330271;28;20531;-63
2023/12/02 17:00:17;;;;;;;28.25;24.55;;;;;;;;;;10330145;28;20091;-63
2023/12/02 17:05:40;;;;;;;8.77;5.72;;;;;;;;;;10330208;28;20740;-62
2023/12/02 17:10:57;;;;;;;6.18;3.90;;;;;;;;;;10337514;28;20068;-62
2023/12/02 17:15:55;;;;;;;6.80;3.90;;;;;;;;;;10337834;28;20079;-63
2023/12/02 17:20:53;;;;;;;10.10;5.28;;;;;;;;;;10337183;28;20060;-62
2023/12/02 17:25:55;;;;;;;5.47;3.72;;;;;;;;;;10334222;28;20469;-63
2023/12/02 17:30:54;;;;;;;7.22;4.72;;;;;;;;;;10332136;28;20443;-62
2023/12/02 17:35:52;;;;;;;8.18;3.38;;;;;;;;;;10331216;28;20074;-62
2023/12/02 17:40:50;;;;;;;5.13;2.90;;;;;;;;;;10323680;28;20079;-62
2023/12/02 17:45:50;;;;;;;9.13;4.60;;;;;;;;;;10328318;28;20266;-62
2023/12/02 17:50:48;;;;;;;21.23;13.70;;;;;;;;;;10323817;28;20083;-62
2023/12/02 17:55:46;;;;;;;62.05;41.55;;;;;;;;;;10328424;28;20063;-63
2023/12/02 18:00:44;;;;;;;50.78;28.48;;;;;;;;;;10334127;28;20075;-63
2023/12/02 18:05:44;;;;;;;61.13;38.17;;;;;;;;;;10323835;28;20075;-63
2023/12/02 18:10:42;;;;;;;42.45;28.13;;;;;;;;;;10341673;28;20059;-63
2023/12/02 18:15:41;;;;;;;89.20;61.50;;;;;;;;;;10329741;28;20067;-63
2023/12/02 18:20:42;;;;;;;20.52;16.70;;;;;;;;;;10303448;28;20906;-62
2023/12/02 18:25:41;;;;;;;17.17;13.40;;;;;;;;;;10304714;28;20565;-62
2023/12/02 18:30:40;;;;;;;72.82;55.83;;;;;;;;;;10294839;28;20139;-63
2023/12/02 18:35:40;;;;;;;107.40;74.15;;;;;;;;;;10301222;28;20126;-63
2023/12/02 18:40:38;;;;;;;105.70;76.00;;;;;;;;;;10317920;28;20144;-62
2023/12/02 18:45:38;;;;;;;119.05;74.40;;;;;;;;;;10309471;28;20127;-63
2023/12/02 18:50:37;;;;;;;18.45;14.43;;;;;;;;;;10315339;28;20131;-63
2023/12/02 18:55:35;;;;;;;56.90;41.75;;;;;;;;;;10328103;28;20505;-62
2023/12/02 19:00:33;;;;;;;30.75;26.40;;;;;;;;;;10334020;28;20502;-63
2023/12/02 19:05:33;;;;;;;25.27;15.23;;;;;;;;;;10325210;28;20131;-63
2023/12/02 19:10:31;;;;;;;88.72;48.22;;;;;;;;;;10329343;28;20490;-64
2023/12/02 19:15:30;;;;;;;98.13;51.03;;;;;;;;;;10302153;28;20119;-63
2023/12/02 19:20:28;;;;;;;86.03;54.78;;;;;;;;;;10301930;28;20315;-63
2023/12/02 19:25:27;;;;;;;54.53;39.53;;;;;;;;;;10303127;28;20121;-63
2023/12/02 19:30:26;;;;;;;48.90;39.20;;;;;;;;;;10324382;28;20063;-63
2023/12/02 19:35:24;;;;;;;24.40;19.90;;;;;;;;;;10327937;28;20078;-63
2023/12/02 19:40:22;;;;;;;65.53;38.60;;;;;;;;;;10307326;28;20118;-63
2023/12/02 19:45:22;;;;;;;65.57;40.83;;;;;;;;;;10321394;28;20131;-62
2023/12/02 19:50:21;;;;;;;35.88;22.48;;;;;;;;;;10325259;28;20102;-62
2023/12/02 19:55:19;;;;;;;80.88;54.58;;;;;;;;;;10306637;28;20157;-63
2023/12/02 20:00:17;;;;;;;60.42;46.35;;;;;;;;;;10307526;28;20147;-63
2023/12/02 20:05:18;;;;;;;45.38;33.88;;;;;;;;;;10307714;28;20127;-62
2023/12/02 20:10:16;;;;;;;57.17;43.33;;;;;;;;;;10300638;28;20162;-62
2023/12/02 20:15:15;;;;;;;47.78;36.33;;;;;;;;;;10298355;28;20139;-63
2023/12/02 20:20:14;;;;;;;23.38;18.27;;;;;;;;;;10299371;28;20119;-63
2023/12/02 20:25:17;;;;;;;23.10;16.95;;;;;;;;;;10321706;28;20139;-63
2023/12/02 20:30:17;;;;;;;17.23;13.60;;;;;;;;;;10300892;28;20717;-63
2023/12/02 20:35:16;;;;;;;39.38;29.88;;;;;;;;;;10300642;28;20748;-63
2023/12/02 20:40:15;;;;;;;22.40;15.13;;;;;;;;;;10317232;28;20507;-63
2023/12/02 20:45:14;;;;;;;16.05;14.10;;;;;;;;;;10316280;28;20131;-63
2023/12/02 20:50:12;;;;;;;13.45;9.60;;;;;;;;;;10324430;28;20158;-63
2023/12/02 20:55:10;;;;;;;16.30;11.10;;;;;;;;;;10335963;28;20079;-63
2023/12/02 21:00:10;;;;;;;20.00;13.68;;;;;;;;;;10328185;28;20084;-62
2023/12/02 21:05:09;;;;;;;16.27;11.90;;;;;;;;;;10343159;28;20068;-62
2023/12/02 21:10:08;;;;;;;9.13;8.15;;;;;;;;;;10347482;28;20067;-62
2023/12/02 21:15:06;;;;;;;11.60;8.38;;;;;;;;;;10338801;28;20075;-63
2023/12/02 21:20:07;;;;;;;9.93;5.50;;;;;;;;;;10335408;28;20504;-63
2023/12/02 21:25:06;;;;;;;10.52;5.97;;;;;;;;;;10340099;22;20511;-64
2023/12/02 21:30:07;;;;;;;10.80;5.10;;;;;;;;;;10321739;28;20175;-64
2023/12/02 21:35:11;;;;;;;9.13;4.35;;;;;;;;;;10320294;28;20032;-62
2023/12/02 21:40:10;;;;;;;;;;;;;;;;;;10606327;22;20612;-64
2023/12/02 21:45:24;;;;;;;23.25;12.88;;;;;;;;;;10300844;28;20376;-64
2023/12/02 21:50:24;;;;;;;23.30;17.52;;;;;;;;;;10303000;28;20488;-65
2023/12/02 21:55:28;;;;;;;31.38;22.88;;;;;;;;;;10304616;28;20567;-65
2023/12/02 22:00:26;;;;;;;16.25;13.23;;;;;;;;;;10285425;28;20487;-64
2023/12/02 22:05:26;;;;;;;50.42;32.00;;;;;;;;;;10302425;28;20479;-66
2023/12/02 22:10:28;;;;;;;24.80;19.55;;;;;;;;;;10302129;28;20048;-65
2023/12/02 22:15:30;;;;;;;33.80;23.40;;;;;;;;;;10303923;28;20127;-64
2023/12/02 22:20:30;;;;;;;26.48;15.93;;;;;;;;;;10303374;28;20135;-64
2023/12/02 22:25:31;;;;;;;12.02;9.13;;;;;;;;;;10301867;28;20131;-65
2023/12/02 22:30:30;;;;;;;32.80;19.92;;;;;;;;;;10302964;28;20189;-66
2023/12/02 22:35:37;;;;;;;56.28;30.42;;;;;;;;;;10303427;28;20127;-66
2023/12/02 22:40:37;;;;;;;31.45;18.90;;;;;;;;;;10315967;28;20534;-66
2023/12/02 22:45:36;;;;;;;42.55;24.83;;;;;;;;;;10313525;28;20151;-66
2023/12/02 22:50:37;;;;;;;20.15;10.80;;;;;;;;;;10303682;28;20146;-66
2023/12/02 22:55:51;;;;;;;9.63;4.95;;;;;;;;;;10307304;28;20127;-66
2023/12/02 23:00:49;;;;;;;8.65;4.88;;;;;;;;;;10302052;28;20127;-65
2023/12/02 23:05:49;;;;;;;9.55;4.43;;;;;;;;;;10301472;28;20151;-64
2023/12/02 23:10:48;;;;;;;10.77;5.05;;;;;;;;;;10305579;28;20508;-66
2023/12/02 23:15:46;;;;;;;9.55;3.53;;;;;;;;;;10285275;28;20135;-66
2023/12/02 23:20:47;;;;;;;10.23;4.55;;;;;;;;;;10304350;28;20596;-65
2023/12/02 23:25:46;;;;;;;6.28;4.00;;;;;;;;;;10303006;28;20933;-65
2023/12/02 23:30:47;;;;;;;4.25;2.80;;;;;;;;;;10301307;28;20487;-66
2023/12/02 23:35:45;;;;;;;7.82;3.20;;;;;;;;;;10302993;28;20874;-66
2023/12/02 23:40:46;;;;;;;10.00;3.70;;;;;;;;;;10300564;28;20139;-66
2023/12/02 23:45:45;;;;;;;6.07;3.60;;;;;;;;;;10301335;28;20328;-66
2023/12/02 23:50:44;;;;;;;7.15;3.65;;;;;;;;;;10301617;28;20123;-65
2023/12/02 23:55:42;;;;;;;15.02;4.53;;;;;;;;;;10300267;28;20144;-66
